createdAt,value
2023-08-29T00:00:25.890Z,1.37
2023-08-29T00:02:59.287Z,1.60
2023-08-29T00:05:32.114Z,1.00
2023-08-29T00:08:07.877Z,1.55
2023-08-29T00:10:40.719Z,1.30
2023-08-29T00:13:13.702Z,1.97
2023-08-29T00:15:46.462Z,1.92
2023-08-29T00:18:20.942Z,1.55
2023-08-29T00:20:53.996Z,1.75
2023-08-29T00:23:29.848Z,1.60
2023-08-29T00:26:02.400Z,1.23
2023-08-29T00:28:35.326Z,1.10
2023-08-29T00:31:08.049Z,0.98
2023-08-29T00:33:41.006Z,1.52
2023-08-29T00:36:14.143Z,1.55
2023-08-29T00:38:48.269Z,1.10
2023-08-29T00:41:20.921Z,1.13
2023-08-29T00:43:53.923Z,1.40
2023-08-29T00:46:28.579Z,1.23
2023-08-29T00:49:01.372Z,1.17
2023-08-29T00:51:34.333Z,1.93
2023-08-29T00:54:09.742Z,1.50
2023-08-29T00:56:44.341Z,1.70
2023-08-29T00:59:17.736Z,1.35
2023-08-29T01:01:51.523Z,1.58
2023-08-29T01:04:24.092Z,1.73
2023-08-29T01:06:57.940Z,1.52
2023-08-29T01:09:32.653Z,1.17
2023-08-29T01:12:16.646Z,1.30
2023-08-29T01:14:55.674Z,0.93
2023-08-29T01:17:33.360Z,0.90
2023-08-29T01:20:08.368Z,1.58
2023-08-29T01:23:00.612Z,1.20
2023-08-29T01:25:54.029Z,1.60
2023-08-29T01:28:29.135Z,1.55
2023-08-29T01:31:02.651Z,1.63
2023-08-29T01:33:36.918Z,1.67
2023-08-29T01:36:10.234Z,1.50
2023-08-29T01:38:43.402Z,1.30
2023-08-29T01:41:18.079Z,1.65
2023-08-29T01:43:52.147Z,1.00
2023-08-29T01:46:25.241Z,1.00
2023-08-29T01:49:00.380Z,1.45
2023-08-29T01:51:33.890Z,1.00
2023-08-29T01:54:06.812Z,1.40
2023-08-29T01:56:41.656Z,0.90
2023-08-29T01:59:15.625Z,1.20
2023-08-29T02:01:49.094Z,1.00
2023-08-29T02:04:21.780Z,1.13
2023-08-29T02:06:55.055Z,1.60
2023-08-29T02:09:27.680Z,1.63
2023-08-29T02:12:00.745Z,1.15
2023-08-29T02:14:35.222Z,1.25
2023-08-29T02:17:08.411Z,1.20
2023-08-29T02:19:41.228Z,1.48
2023-08-29T02:22:14.458Z,1.97
2023-08-29T02:24:49.024Z,1.02
2023-08-29T02:27:22.189Z,1.20
2023-08-29T02:29:56.611Z,0.95
2023-08-29T02:32:30.241Z,1.10
2023-08-29T02:35:03.007Z,1.43
2023-08-29T02:37:38.833Z,1.08
2023-08-29T02:40:12.164Z,0.90
2023-08-29T02:42:45.517Z,1.25
2023-08-29T02:45:19.537Z,0.88
2023-08-29T02:47:52.365Z,0.73
2023-08-29T02:50:25.623Z,1.92
2023-08-29T02:52:58.659Z,1.17
2023-08-29T02:55:31.302Z,1.52
2023-08-29T02:58:04.822Z,1.02
2023-08-29T03:00:39.594Z,0.77
2023-08-29T03:03:13.163Z,1.10
2023-08-29T03:05:54.779Z,1.50
2023-08-29T03:08:28.141Z,0.75
2023-08-29T03:11:07.157Z,0.88
2023-08-29T03:13:40.814Z,1.30
2023-08-29T03:16:18.901Z,0.90
2023-08-29T03:18:53.339Z,1.23
2023-08-29T03:21:26.316Z,1.40
2023-08-29T03:23:59.282Z,1.10
2023-08-29T03:26:32.288Z,0.80
2023-08-29T03:29:05.286Z,1.20
2023-08-29T03:31:39.906Z,2.15
2023-08-29T03:34:13.140Z,0.85
2023-08-29T03:36:46.184Z,1.20
2023-08-29T03:39:19.174Z,1.20
2023-08-29T03:41:51.674Z,0.63
2023-08-29T03:44:25.553Z,1.42
2023-08-29T03:46:59.541Z,1.15
2023-08-29T03:49:32.821Z,1.33
2023-08-29T03:52:05.899Z,0.67
2023-08-29T03:54:38.823Z,0.68
2023-08-29T03:57:11.824Z,0.80
2023-08-29T03:59:45.196Z,0.88
2023-08-29T04:02:21.383Z,1.35
2023-08-29T04:04:55.387Z,1.50
2023-08-29T04:07:28.179Z,0.77
2023-08-29T04:10:01.381Z,0.60
2023-08-29T04:12:35.918Z,0.70
2023-08-29T04:15:11.897Z,1.35
2023-08-29T04:17:46.319Z,0.93
2023-08-29T04:20:19.700Z,1.50
2023-08-29T04:22:53.026Z,1.00
2023-08-29T04:25:27.814Z,2.13
2023-08-29T04:28:01.210Z,0.98
2023-08-29T04:30:34.934Z,1.27
2023-08-29T04:33:08.974Z,0.90
2023-08-29T04:35:42.227Z,0.63
2023-08-29T04:38:15.025Z,0.80
2023-08-29T04:40:48.058Z,0.73
2023-08-29T04:43:20.760Z,1.13
2023-08-29T04:45:54.045Z,0.50
2023-08-29T04:48:28.374Z,1.13
2023-08-29T04:51:01.324Z,0.90
2023-08-29T04:53:34.398Z,0.90
2023-08-29T04:56:07.863Z,1.07
2023-08-29T04:58:42.801Z,1.48
2023-08-29T05:01:15.821Z,0.77
2023-08-29T05:03:50.608Z,1.30
2023-08-29T05:06:26.451Z,0.90
2023-08-29T05:08:59.454Z,0.70
2023-08-29T05:11:32.519Z,0.63
2023-08-29T05:14:05.480Z,1.15
2023-08-29T05:16:39.567Z,0.77
2023-08-29T05:19:14.153Z,1.33
2023-08-29T05:21:48.139Z,1.57
2023-08-29T05:24:22.126Z,1.85
2023-08-29T05:26:56.913Z,1.25
2023-08-29T05:29:29.617Z,0.80
2023-08-29T05:32:02.727Z,1.08
2023-08-29T05:34:37.016Z,1.30
2023-08-29T05:37:10.330Z,1.48
2023-08-29T05:39:43.098Z,1.10
2023-08-29T05:42:17.117Z,1.00
2023-08-29T05:44:49.710Z,0.90
2023-08-29T05:47:22.370Z,0.63
2023-08-29T05:49:56.627Z,0.88
2023-08-29T05:52:30.116Z,1.02
2023-08-29T05:55:02.713Z,1.10
2023-08-29T05:57:36.525Z,1.70
2023-08-29T06:00:15.203Z,0.97
2023-08-29T06:02:49.685Z,1.40
2023-08-29T06:05:25.085Z,1.00
2023-08-29T06:08:08.908Z,0.90
2023-08-29T06:10:50.909Z,1.20
2023-08-29T06:13:23.730Z,1.00
2023-08-29T06:15:56.977Z,1.20
2023-08-29T06:18:30.273Z,1.63
2023-08-29T06:21:06.266Z,1.30
2023-08-29T06:23:38.881Z,1.05
2023-08-29T06:26:11.808Z,1.20
2023-08-29T06:28:44.726Z,1.15
2023-08-29T06:31:17.849Z,0.93
2023-08-29T06:33:50.743Z,0.95
2023-08-29T06:36:25.455Z,1.48
2023-08-29T06:38:58.386Z,1.33
2023-08-29T06:41:31.004Z,1.35
2023-08-29T06:44:04.421Z,1.67
2023-08-29T06:46:36.962Z,1.63
2023-08-29T06:49:10.597Z,1.45
2023-08-29T06:51:50.390Z,1.10
2023-08-29T06:54:23.586Z,1.13
2023-08-29T06:56:56.736Z,1.30
2023-08-29T06:59:29.875Z,1.35
2023-08-29T07:02:05.555Z,1.23
2023-08-29T07:04:38.666Z,1.27
2023-08-29T07:07:13.633Z,1.00
2023-08-29T07:09:46.446Z,1.27
2023-08-29T07:12:21.489Z,1.05
2023-08-29T07:14:54.788Z,1.40
2023-08-29T07:17:27.914Z,1.00
2023-08-29T07:20:01.008Z,1.23
2023-08-29T07:22:36.647Z,1.02
2023-08-29T07:25:10.307Z,1.25
2023-08-29T07:27:43.662Z,1.63
2023-08-29T07:30:17.042Z,1.87
2023-08-29T07:32:50.817Z,1.75
2023-08-29T07:35:24.127Z,1.30
2023-08-29T07:37:58.091Z,1.70
2023-08-29T07:40:31.057Z,1.08
2023-08-29T07:43:04.896Z,1.57
2023-08-29T07:45:38.495Z,0.82
2023-08-29T07:48:11.632Z,1.20
2023-08-29T07:50:45.193Z,1.92
2023-08-29T07:53:19.565Z,1.38
2023-08-29T07:55:55.325Z,1.27
2023-08-29T07:58:28.288Z,1.40
2023-08-29T08:01:03.373Z,1.40
2023-08-29T08:03:37.497Z,1.35
2023-08-29T08:06:10.118Z,1.17
2023-08-29T08:08:44.884Z,2.80
2023-08-29T08:11:17.631Z,1.55
2023-08-29T08:13:50.646Z,1.67
2023-08-29T08:16:23.960Z,1.70
2023-08-29T08:18:56.941Z,2.45
2023-08-29T08:21:30.352Z,1.90
2023-08-29T08:24:05.791Z,2.15
2023-08-29T08:26:38.928Z,2.25
2023-08-29T08:29:11.857Z,1.90
2023-08-29T08:31:45.586Z,1.20
2023-08-29T08:34:19.176Z,2.10
2023-08-29T08:36:52.794Z,1.65
2023-08-29T08:39:27.422Z,1.52
2023-08-29T08:42:03.929Z,1.92
2023-08-29T08:44:38.953Z,1.30
2023-08-29T08:47:13.924Z,2.33
2023-08-29T08:49:47.355Z,1.83
2023-08-29T08:52:20.642Z,1.55
2023-08-29T08:54:54.651Z,1.35
2023-08-29T08:57:27.329Z,1.58
2023-08-29T09:00:00.881Z,1.97
2023-08-29T09:02:39.279Z,3.08
2023-08-29T09:05:12.186Z,1.48
2023-08-29T09:07:44.915Z,1.45
2023-08-29T09:10:21.291Z,1.48
2023-08-29T09:12:57.036Z,1.17
2023-08-29T09:15:30.201Z,1.63
2023-08-29T09:18:03.694Z,1.70
2023-08-29T09:20:36.550Z,1.73
2023-08-29T09:23:21.899Z,2.03
2023-08-29T09:25:57.479Z,1.43
2023-08-29T09:28:31.014Z,1.55
2023-08-29T09:31:12.412Z,1.17
2023-08-29T09:33:49.498Z,2.15
2023-08-29T09:36:22.856Z,2.08
2023-08-29T09:38:59.313Z,1.80
2023-08-29T09:41:34.038Z,2.45
2023-08-29T09:44:13.404Z,2.17
2023-08-29T09:46:46.508Z,1.30
2023-08-29T09:49:19.764Z,2.75
2023-08-29T09:51:53.373Z,2.67
2023-08-29T09:54:27.226Z,1.67
2023-08-29T09:57:07.461Z,1.45
2023-08-29T09:59:42.703Z,1.88
2023-08-29T10:02:16.669Z,2.33
2023-08-29T10:04:55.724Z,2.20
2023-08-29T10:07:39.470Z,1.88
2023-08-29T10:10:12.107Z,2.13
2023-08-29T10:12:48.057Z,1.92
2023-08-29T10:15:23.268Z,2.60
2023-08-29T10:17:58.026Z,2.00
2023-08-29T10:20:33.573Z,1.98
2023-08-29T10:23:09.602Z,2.42
2023-08-29T10:25:43.294Z,2.78
2023-08-29T10:28:19.652Z,2.25
2023-08-29T10:30:55.944Z,2.27
2023-08-29T10:33:29.200Z,1.80
2023-08-29T10:36:05.167Z,1.67
2023-08-29T10:38:47.656Z,2.30
2023-08-29T10:41:22.059Z,1.95
2023-08-29T10:44:26.983Z,2.63
2023-08-29T10:47:16.680Z,2.70
2023-08-29T10:49:49.383Z,1.88
2023-08-29T10:52:22.678Z,2.58
2023-08-29T10:55:03.742Z,2.58
2023-08-29T10:57:37.541Z,2.60
2023-08-29T11:00:18.568Z,3.20
2023-08-29T11:02:53.526Z,2.35
2023-08-29T11:05:26.619Z,2.33
2023-08-29T11:08:24.047Z,2.33
2023-08-29T11:11:18.883Z,2.50
2023-08-29T11:13:59.660Z,2.92
2023-08-29T11:16:39.447Z,3.88
2023-08-29T11:19:15.679Z,2.67
2023-08-29T11:21:49.656Z,2.85
2023-08-29T11:24:23.133Z,3.17
2023-08-29T11:26:59.450Z,3.28
2023-08-29T11:29:37.219Z,3.17
2023-08-29T11:32:10.636Z,3.50
2023-08-29T11:34:45.348Z,3.20
2023-08-29T11:37:17.849Z,2.20
2023-08-29T11:39:54.477Z,2.30
2023-08-29T11:42:50.026Z,2.58
2023-08-29T11:45:46.116Z,2.72
2023-08-29T11:48:22.395Z,2.45
2023-08-29T11:50:58.158Z,2.43
2023-08-29T11:53:32.600Z,2.60
2023-08-29T11:56:07.522Z,3.45
2023-08-29T11:58:41.323Z,2.20
2023-08-29T12:01:14.500Z,2.45
2023-08-29T12:03:47.555Z,2.70
2023-08-29T12:06:27.110Z,4.18
2023-08-29T12:09:01.262Z,3.13
2023-08-29T12:11:43.257Z,2.72
2023-08-29T12:14:15.839Z,2.90
2023-08-29T12:16:54.266Z,2.63
2023-08-29T12:19:27.262Z,2.88
2023-08-29T12:22:03.201Z,2.47
2023-08-29T12:24:36.027Z,3.90
2023-08-29T12:27:09.530Z,2.75
2023-08-29T12:29:42.890Z,2.17
2023-08-29T12:32:17.843Z,2.83
2023-08-29T12:34:50.857Z,2.63
2023-08-29T12:37:25.707Z,2.60
2023-08-29T12:39:59.162Z,2.13
2023-08-29T12:42:32.187Z,1.90
2023-08-29T12:45:06.758Z,2.10
2023-08-29T12:47:39.698Z,2.42
2023-08-29T12:50:14.805Z,2.45
2023-08-29T12:52:51.014Z,3.97
2023-08-29T12:55:24.120Z,3.50
2023-08-29T12:57:56.976Z,2.20
2023-08-29T13:00:30.021Z,3.38
2023-08-29T13:03:02.764Z,3.75
2023-08-29T13:05:36.145Z,2.47
2023-08-29T13:08:10.634Z,2.70
2023-08-29T13:10:44.074Z,3.28
2023-08-29T13:13:17.969Z,3.22
2023-08-29T13:15:51.865Z,3.35
2023-08-29T13:18:25.171Z,2.70
2023-08-29T13:20:58.293Z,4.23
2023-08-29T13:23:33.390Z,2.88
2023-08-29T13:26:06.684Z,3.92
2023-08-29T13:28:39.814Z,3.63
2023-08-29T13:31:12.781Z,2.70
2023-08-29T13:33:46.779Z,3.87
2023-08-29T13:36:20.084Z,3.15
2023-08-29T13:38:54.288Z,3.17
2023-08-29T13:41:27.511Z,3.33
2023-08-29T13:44:00.108Z,3.40
2023-08-29T13:46:33.351Z,3.10
2023-08-29T13:49:06.097Z,3.60
2023-08-29T13:51:39.330Z,3.88
2023-08-29T13:54:13.243Z,2.95
2023-08-29T13:56:46.324Z,2.88
2023-08-29T13:59:19.977Z,3.23
2023-08-29T14:01:53.281Z,2.50
2023-08-29T14:04:25.959Z,2.72
2023-08-29T14:06:58.946Z,2.22
2023-08-29T14:09:33.426Z,2.90
2023-08-29T14:12:07.918Z,2.97
2023-08-29T14:14:41.463Z,2.92
2023-08-29T14:17:14.904Z,3.33
2023-08-29T14:19:47.461Z,2.75
2023-08-29T14:22:20.654Z,2.92
2023-08-29T14:24:55.279Z,2.63
2023-08-29T14:27:27.960Z,3.65
2023-08-29T14:30:01.113Z,3.08
2023-08-29T14:32:39.639Z,2.55
2023-08-29T14:35:14.166Z,3.22
2023-08-29T14:37:47.182Z,3.23
2023-08-29T14:40:25.479Z,2.70
2023-08-29T14:42:58.395Z,2.65
2023-08-29T14:45:31.823Z,3.00
2023-08-29T14:48:05.648Z,2.90
2023-08-29T14:50:38.998Z,3.50
2023-08-29T14:53:17.329Z,3.03
2023-08-29T14:55:53.876Z,3.15
2023-08-29T14:58:28.191Z,3.15
2023-08-29T15:01:01.688Z,3.40
2023-08-29T15:03:35.735Z,3.27
2023-08-29T15:06:12.665Z,3.10
2023-08-29T15:08:45.255Z,4.03
2023-08-29T15:11:21.863Z,3.40
2023-08-29T15:13:54.556Z,3.10
2023-08-29T15:16:27.651Z,2.83
2023-08-29T15:19:01.625Z,3.30
2023-08-29T15:21:34.729Z,3.03
2023-08-29T15:24:09.623Z,2.70
2023-08-29T15:26:45.178Z,3.25
2023-08-29T15:29:19.583Z,3.10
2023-08-29T15:31:52.569Z,2.67
2023-08-29T15:34:26.411Z,2.17
2023-08-29T15:36:59.560Z,1.80
2023-08-29T15:39:34.727Z,2.72
2023-08-29T15:42:09.029Z,3.27
2023-08-29T15:44:42.927Z,3.30
2023-08-29T15:47:16.180Z,3.08
2023-08-29T15:49:49.490Z,2.80
2023-08-29T15:52:22.531Z,3.97
2023-08-29T15:54:55.843Z,5.40
2023-08-29T15:57:30.677Z,3.33
2023-08-29T16:00:10.936Z,3.13
2023-08-29T16:02:45.639Z,3.92
2023-08-29T16:05:20.316Z,3.13
2023-08-29T16:07:53.560Z,3.30
2023-08-29T16:10:26.613Z,2.35
2023-08-29T16:13:01.345Z,2.42
2023-08-29T16:15:35.066Z,2.47
2023-08-29T16:18:08.150Z,2.80
2023-08-29T16:20:42.504Z,2.97
2023-08-29T16:23:15.460Z,2.67
2023-08-29T16:25:50.869Z,2.75
2023-08-29T16:28:24.937Z,2.80
2023-08-29T16:31:01.439Z,2.10
2023-08-29T16:33:34.737Z,2.83
2023-08-29T16:36:08.334Z,3.33
2023-08-29T16:38:41.418Z,2.70
2023-08-29T16:41:14.636Z,4.18
2023-08-29T16:43:49.317Z,4.30
2023-08-29T16:46:22.311Z,2.53
2023-08-29T16:48:56.226Z,3.33
2023-08-29T16:51:28.786Z,3.40
2023-08-29T16:54:01.693Z,2.92
2023-08-29T16:56:34.266Z,5.05
2023-08-29T16:59:09.313Z,3.27
2023-08-29T17:01:42.108Z,4.13
2023-08-29T17:04:15.338Z,3.17
2023-08-29T17:06:48.977Z,3.80
2023-08-29T17:09:23.296Z,3.75
2023-08-29T17:11:55.990Z,3.37
2023-08-29T17:14:30.505Z,5.03
2023-08-29T17:17:03.817Z,4.25
2023-08-29T17:19:36.622Z,4.85
2023-08-29T17:22:09.992Z,5.70
2023-08-29T17:24:43.799Z,3.73
2023-08-29T17:27:24.170Z,4.63
2023-08-29T17:29:58.727Z,5.70
2023-08-29T17:32:32.744Z,4.60
2023-08-29T17:35:06.719Z,3.63
2023-08-29T17:37:41.880Z,3.90
2023-08-29T17:40:15.363Z,3.78
2023-08-29T17:42:49.105Z,5.32
2023-08-29T17:45:23.362Z,4.35
2023-08-29T17:47:56.125Z,4.47
2023-08-29T17:50:30.470Z,5.13
2023-08-29T17:53:04.043Z,3.92
2023-08-29T17:55:37.419Z,4.25
2023-08-29T17:58:13.886Z,5.30
2023-08-29T18:00:49.595Z,3.90
2023-08-29T18:03:22.845Z,5.23
2023-08-29T18:06:01.479Z,5.43
2023-08-29T18:08:41.244Z,4.20
2023-08-29T18:11:15.660Z,4.47
2023-08-29T18:13:52.385Z,4.03
2023-08-29T18:16:26.586Z,3.93
2023-08-29T18:19:01.161Z,3.28
2023-08-29T18:21:34.401Z,3.90
2023-08-29T18:24:07.977Z,4.43
2023-08-29T18:26:40.571Z,5.30
2023-08-29T18:29:13.910Z,3.73
2023-08-29T18:31:49.277Z,3.33
2023-08-29T18:34:22.137Z,4.47
2023-08-29T18:36:55.226Z,4.28
2023-08-29T18:39:28.879Z,4.38
2023-08-29T18:42:02.190Z,3.33
2023-08-29T18:44:38.217Z,4.20
2023-08-29T18:47:12.640Z,3.55
2023-08-29T18:49:45.338Z,3.58
2023-08-29T18:52:18.524Z,3.35
2023-08-29T18:54:51.772Z,4.37
2023-08-29T18:57:26.243Z,3.15
2023-08-29T18:59:59.262Z,3.47
2023-08-29T19:02:36.618Z,3.13
2023-08-29T19:05:10.853Z,3.15
2023-08-29T19:07:46.352Z,3.63
2023-08-29T19:10:20.065Z,3.50
2023-08-29T19:12:52.676Z,3.15
2023-08-29T19:15:26.142Z,5.07
2023-08-29T19:18:05.556Z,4.65
2023-08-29T19:20:39.348Z,4.73
2023-08-29T19:23:12.509Z,4.13
2023-08-29T19:25:46.664Z,2.92
2023-08-29T19:28:20.581Z,3.60
2023-08-29T19:30:55.826Z,2.90
2023-08-29T19:33:30.789Z,2.87
2023-08-29T19:36:14.287Z,2.92
2023-08-29T19:38:48.217Z,4.00
2023-08-29T19:41:20.838Z,4.22
2023-08-29T19:43:54.244Z,3.42
2023-08-29T19:46:27.184Z,3.53
2023-08-29T19:49:03.728Z,3.70
2023-08-29T19:51:36.693Z,3.08
2023-08-29T19:54:10.850Z,3.33
2023-08-29T19:56:48.858Z,3.17
2023-08-29T19:59:22.671Z,2.70
2023-08-29T20:01:55.413Z,3.90
2023-08-29T20:04:30.076Z,3.60
2023-08-29T20:07:03.364Z,2.75
2023-08-29T20:09:36.516Z,3.25
2023-08-29T20:12:10.275Z,3.83
2023-08-29T20:14:43.486Z,4.43
2023-08-29T20:17:16.698Z,2.92
2023-08-29T20:19:51.200Z,2.65
2023-08-29T20:22:24.525Z,2.95
2023-08-29T20:24:57.402Z,3.77
2023-08-29T20:27:31.898Z,3.25
2023-08-29T20:30:07.640Z,4.00
2023-08-29T20:32:41.095Z,4.38
2023-08-29T20:35:15.256Z,3.50
2023-08-29T20:37:49.325Z,3.87
2023-08-29T20:40:22.465Z,3.40
2023-08-29T20:42:56.224Z,2.72
2023-08-29T20:45:30.322Z,4.72
2023-08-29T20:48:04.800Z,3.85
2023-08-29T20:50:42.062Z,3.07
2023-08-29T20:53:15.560Z,3.03
2023-08-29T20:55:48.164Z,3.73
2023-08-29T20:58:21.980Z,3.25
2023-08-29T21:00:58.913Z,3.92
2023-08-29T21:03:33.233Z,3.63
2023-08-29T21:06:08.195Z,3.00
2023-08-29T21:08:41.097Z,3.70
2023-08-29T21:11:13.785Z,5.40
2023-08-29T21:13:47.052Z,3.42
2023-08-29T21:16:19.526Z,4.32
2023-08-29T21:18:52.745Z,4.88
2023-08-29T21:21:27.080Z,4.30
2023-08-29T21:24:00.342Z,4.07
2023-08-29T21:26:33.081Z,3.10
2023-08-29T21:29:06.015Z,3.40
2023-08-29T21:32:04.772Z,2.75
2023-08-29T21:34:42.572Z,3.07
2023-08-29T21:37:35.541Z,4.25
2023-08-29T21:40:13.037Z,4.53
2023-08-29T21:42:49.506Z,3.83
2023-08-29T21:45:27.743Z,4.03
2023-08-29T21:48:25.970Z,4.03
2023-08-29T21:51:30.143Z,3.33
2023-08-29T21:54:04.956Z,4.72
2023-08-29T21:56:41.072Z,3.08
2023-08-29T21:59:19.547Z,4.18
2023-08-29T22:02:02.505Z,3.17
2023-08-29T22:04:37.233Z,4.10
2023-08-29T22:07:10.959Z,4.65
2023-08-29T22:09:51.026Z,3.13
2023-08-29T22:12:23.986Z,3.95
2023-08-29T22:14:56.532Z,3.10
2023-08-29T22:17:29.526Z,3.17
2023-08-29T22:20:02.405Z,4.95
2023-08-29T22:22:37.635Z,3.20
2023-08-29T22:25:17.280Z,4.05
2023-08-29T22:27:52.287Z,4.13
2023-08-29T22:30:25.894Z,3.90
2023-08-29T22:32:59.204Z,3.88
2023-08-29T22:35:36.473Z,3.70
2023-08-29T22:38:24.879Z,3.92
2023-08-29T22:41:28.779Z,3.03
2023-08-29T22:44:08.355Z,3.55
2023-08-29T22:46:44.995Z,4.15
2023-08-29T22:49:22.761Z,2.53
2023-08-29T22:52:00.690Z,3.70
2023-08-29T22:54:35.016Z,3.87
2023-08-29T22:57:19.313Z,4.05
2023-08-29T23:00:02.795Z,4.20
2023-08-29T23:02:47.620Z,4.32
2023-08-29T23:05:22.496Z,4.22
2023-08-29T23:07:55.926Z,4.37
2023-08-29T23:10:29.476Z,3.70
2023-08-29T23:13:09.541Z,3.88
2023-08-29T23:15:49.587Z,3.30
2023-08-29T23:18:33.113Z,3.55
2023-08-29T23:21:06.621Z,3.80
2023-08-29T23:23:39.708Z,4.72
2023-08-29T23:26:24.156Z,2.40
2023-08-29T23:28:59.389Z,3.58
2023-08-29T23:31:33.510Z,2.80
2023-08-29T23:34:06.934Z,3.73
2023-08-29T23:36:40.771Z,3.75
2023-08-29T23:39:13.788Z,3.58
2023-08-29T23:41:49.023Z,3.78
2023-08-29T23:44:24.124Z,4.50
2023-08-29T23:46:57.515Z,4.27
2023-08-29T23:49:30.814Z,4.07
2023-08-29T23:52:04.513Z,3.08
2023-08-29T23:54:37.533Z,3.55
2023-08-29T23:57:10.086Z,3.95
2023-08-29T23:59:44.113Z,3.87
